weather.gov     
National Weather Service

Terminal Aerodrome Forecast
NWS Homepage
This page is being discontinued on March 12, 2014.
The same data is available at this site. Please update your bookmarks.
Thank you, and we apologize for the inconvenience.
Please send an email to SR-SRH.Webmaster@noaa.gov with any concerns.


Current Version
Previous Version:    01  02  03  04  05  06  07  08  09  10  11  12  13  14  15  16  17  18  19  20  21  22  23  
[Printable]
923
FTUS41 KBTV 231100
TAFSLK
TAF
KSLK 231128Z 2312/2412 34005KT 4SM BR BKN008 OVC015
      TEMPO 2312/2316 6SM BR SCT008 OVC015
     FM231600 30009G18KT P6SM VCSH SCT008 OVC015
     FM240000 29009KT P6SM VCSH SCT005 OVC011=


U.S. Dept. of Commerce
NOAA National Weather Service
1325 East West Highway
Silver Spring, MD 20910
E-mail: w-nws.webmaster@noaa.gov
Page last modified: May 16, 2007
NATIONAL WEATHER SERVICE: for Safety, for Work, for Fun - FOR LIFE